createdAt,value
2018-02-05T00:00:41.090Z,16.40
2018-02-05T00:03:10.029Z,15.93
2018-02-05T00:05:38.167Z,16.15
2018-02-05T00:08:06.341Z,15.93
2018-02-05T00:10:34.452Z,16.95
2018-02-05T00:13:02.582Z,16.25
2018-02-05T00:15:30.753Z,16.67
2018-02-05T00:17:59.647Z,17.52
2018-02-05T00:20:27.762Z,16.48
2018-02-05T00:22:55.891Z,17.62
2018-02-05T00:25:24.030Z,17.27
2018-02-05T00:27:52.236Z,17.45
2018-02-05T00:30:20.433Z,18.15
2018-02-05T00:32:48.569Z,17.75
2018-02-05T00:35:17.463Z,18.65
2018-02-05T00:37:46.361Z,19.42
2018-02-05T00:40:14.531Z,17.98
2018-02-05T00:42:43.405Z,17.92
2018-02-05T00:45:12.304Z,19.62
2018-02-05T00:47:41.246Z,19.27
2018-02-05T00:50:09.336Z,18.48
2018-02-05T00:52:37.539Z,19.17
2018-02-05T00:55:06.439Z,18.58
2018-02-05T00:57:34.607Z,18.40
2018-02-05T01:00:03.480Z,19.08
2018-02-05T01:02:32.375Z,18.45
2018-02-05T01:05:01.261Z,19.12
2018-02-05T01:07:30.151Z,19.75
2018-02-05T01:09:59.043Z,20.65
2018-02-05T01:12:27.915Z,20.15
2018-02-05T01:14:56.045Z,19.27
2018-02-05T01:17:24.203Z,19.02
2018-02-05T01:19:52.309Z,20.33
2018-02-05T01:22:20.419Z,19.85
2018-02-05T01:24:49.323Z,20.70
2018-02-05T01:27:18.423Z,20.42
2018-02-05T01:29:46.570Z,20.08
2018-02-05T01:32:14.639Z,20.83
2018-02-05T01:34:43.575Z,20.75
2018-02-05T01:37:12.455Z,21.02
2018-02-05T01:39:40.575Z,19.90
2018-02-05T01:42:08.699Z,20.75
2018-02-05T01:44:36.863Z,21.50
2018-02-05T01:47:05.963Z,21.12
2018-02-05T01:49:34.077Z,20.23
2018-02-05T01:52:02.184Z,20.30
2018-02-05T01:54:31.079Z,20.85
2018-02-05T01:56:59.989Z,20.90
2018-02-05T01:59:28.095Z,20.45
2018-02-05T02:01:56.229Z,21.80
2018-02-05T02:04:24.377Z,22.15
2018-02-05T02:06:52.495Z,22.58
2018-02-05T02:09:20.615Z,21.30
2018-02-05T02:11:48.837Z,21.85
2018-02-05T02:14:16.976Z,21.98
2018-02-05T02:16:45.887Z,21.98
2018-02-05T02:19:14.039Z,21.55
2018-02-05T02:21:42.923Z,21.58
2018-02-05T02:24:11.810Z,21.75
2018-02-05T02:26:39.956Z,22.83
2018-02-05T02:29:08.079Z,21.65
2018-02-05T02:31:36.190Z,22.42
2018-02-05T02:34:04.370Z,21.48
2018-02-05T02:36:32.513Z,21.62
2018-02-05T02:39:00.619Z,22.17
2018-02-05T02:41:28.727Z,21.30
2018-02-05T02:43:57.729Z,21.17
2018-02-05T02:46:26.635Z,20.95
2018-02-05T02:48:54.752Z,21.10
2018-02-05T02:51:22.862Z,21.00
2018-02-05T02:53:50.978Z,21.80
2018-02-05T02:56:19.102Z,20.90
2018-02-05T02:58:47.998Z,22.73
2018-02-05T03:01:16.106Z,22.20
2018-02-05T03:03:44.238Z,23.12
2018-02-05T03:06:13.138Z,22.62
2018-02-05T03:08:41.270Z,22.87
2018-02-05T03:11:09.378Z,23.55
2018-02-05T03:13:37.544Z,22.10
2018-02-05T03:16:06.476Z,23.80
2018-02-05T03:18:34.606Z,23.62
2018-02-05T03:21:03.474Z,24.27
2018-02-05T03:23:31.669Z,24.42
2018-02-05T03:25:59.826Z,23.62
2018-02-05T03:28:27.950Z,24.48
2018-02-05T03:30:56.063Z,23.27
2018-02-05T03:33:24.178Z,23.95
2018-02-05T03:35:52.329Z,24.52
2018-02-05T03:38:21.336Z,24.75
2018-02-05T03:40:49.444Z,24.90
2018-02-05T03:43:17.543Z,24.00
2018-02-05T03:45:45.666Z,26.05
2018-02-05T03:48:13.798Z,24.90
2018-02-05T03:50:42.668Z,26.02
2018-02-05T03:53:10.884Z,24.98
2018-02-05T03:55:39.048Z,26.05
2018-02-05T03:58:07.226Z,25.50
2018-02-05T04:00:35.344Z,25.88
2018-02-05T04:03:03.480Z,25.48
2018-02-05T04:05:31.633Z,25.35
2018-02-05T04:08:00.538Z,25.45
2018-02-05T04:10:28.659Z,25.62
2018-02-05T04:12:56.771Z,27.73
2018-02-05T04:15:25.676Z,28.45
2018-02-05T04:17:53.805Z,26.75
2018-02-05T04:20:22.002Z,27.15
2018-02-05T04:22:50.896Z,27.87
2018-02-05T04:25:19.274Z,29.80
2018-02-05T04:27:48.168Z,27.20
2018-02-05T04:30:16.305Z,29.30
2018-02-05T04:32:44.513Z,28.30
2018-02-05T04:35:13.403Z,27.55
2018-02-05T04:37:42.293Z,28.35
2018-02-05T04:40:11.181Z,29.02
2018-02-05T04:42:40.171Z,29.23
2018-02-05T04:45:09.055Z,27.52
2018-02-05T04:47:38.008Z,29.25
2018-02-05T04:50:06.185Z,29.17
2018-02-05T04:52:34.323Z,28.65
2018-02-05T04:55:03.203Z,29.60
2018-02-05T04:57:31.331Z,29.30
2018-02-05T04:59:59.461Z,30.00
2018-02-05T05:02:27.639Z,31.00
2018-02-05T05:04:55.759Z,28.65
2018-02-05T05:07:23.953Z,28.73
2018-02-05T05:09:52.879Z,28.95
2018-02-05T05:12:21.019Z,31.12
2018-02-05T05:14:49.135Z,27.75
2018-02-05T05:17:17.363Z,28.73
2018-02-05T05:19:46.352Z,28.33
2018-02-05T05:22:15.252Z,29.52
2018-02-05T05:24:43.383Z,29.63
2018-02-05T05:27:11.507Z,28.17
2018-02-05T05:29:39.647Z,28.05
2018-02-05T05:32:08.531Z,29.50
2018-02-05T05:34:36.648Z,29.05
2018-02-05T05:37:04.787Z,28.40
2018-02-05T05:39:33.688Z,31.05
2018-02-05T05:42:01.811Z,28.85
2018-02-05T05:44:29.957Z,29.42
2018-02-05T05:46:58.835Z,30.05
2018-02-05T05:49:26.970Z,30.23
2018-02-05T05:51:55.092Z,30.98
2018-02-05T05:54:23.214Z,31.83
2018-02-05T05:56:51.399Z,29.37
2018-02-05T05:59:20.514Z,30.23
2018-02-05T06:01:48.680Z,29.73
2018-02-05T06:04:16.794Z,30.70
2018-02-05T06:06:44.928Z,32.17
2018-02-05T06:09:13.298Z,30.25
2018-02-05T06:11:42.174Z,32.45
2018-02-05T06:14:11.078Z,31.05
2018-02-05T06:16:39.251Z,31.10
2018-02-05T06:19:07.384Z,30.70
2018-02-05T06:21:35.500Z,30.05
2018-02-05T06:24:03.616Z,31.23
2018-02-05T06:26:31.758Z,29.30
2018-02-05T06:28:59.906Z,30.60
2018-02-05T06:31:28.794Z,29.33
2018-02-05T06:33:57.678Z,29.75
2018-02-05T06:36:26.604Z,28.87
2018-02-05T06:38:54.750Z,30.25
2018-02-05T06:41:22.864Z,28.77
2018-02-05T06:43:50.973Z,29.80
2018-02-05T06:46:20.094Z,30.08
2018-02-05T06:48:48.322Z,29.25
2018-02-05T06:51:28.354Z,29.15
2018-02-05T06:54:08.304Z,29.02
2018-02-05T06:56:36.442Z,30.60
2018-02-05T06:59:04.624Z,31.42
2018-02-05T07:01:32.751Z,29.95
2018-02-05T07:04:00.875Z,31.12
2018-02-05T07:06:28.993Z,29.12
2018-02-05T07:08:57.132Z,28.75
2018-02-05T07:11:25.276Z,28.23
2018-02-05T07:13:53.397Z,29.33
2018-02-05T07:16:21.596Z,28.92
2018-02-05T07:18:49.899Z,28.17
2018-02-05T07:21:18.084Z,29.52
2018-02-05T07:23:46.195Z,28.67
2018-02-05T07:26:14.353Z,28.87
2018-02-05T07:28:42.495Z,27.85
2018-02-05T07:31:10.863Z,27.90
2018-02-05T07:33:39.041Z,28.83
2018-02-05T07:36:07.159Z,29.37
2018-02-05T07:38:35.413Z,28.80
2018-02-05T07:41:03.511Z,28.67
2018-02-05T07:43:31.709Z,28.20
2018-02-05T07:45:59.805Z,28.50
2018-02-05T07:48:27.939Z,27.48
2018-02-05T07:50:56.095Z,28.62
2018-02-05T07:53:24.212Z,27.50
2018-02-05T07:55:53.090Z,28.00
2018-02-05T07:58:22.103Z,26.58
2018-02-05T08:00:50.521Z,27.35
2018-02-05T08:03:18.639Z,26.90
2018-02-05T08:05:47.547Z,27.17
2018-02-05T08:08:15.679Z,27.98
2018-02-05T08:10:43.877Z,25.48
2018-02-05T08:13:12.783Z,26.40
2018-02-05T08:15:40.951Z,25.92
2018-02-05T08:18:09.067Z,25.92
2018-02-05T08:20:37.318Z,25.83
2018-02-05T08:23:05.465Z,25.88
2018-02-05T08:25:34.347Z,27.02
2018-02-05T08:28:03.277Z,24.90
2018-02-05T08:30:31.427Z,25.02
2018-02-05T08:32:59.611Z,24.83
2018-02-05T08:35:27.753Z,24.42
2018-02-05T08:37:56.639Z,24.85
2018-02-05T08:40:25.587Z,25.25
2018-02-05T08:42:53.746Z,25.05
2018-02-05T08:45:21.917Z,26.17
2018-02-05T08:47:50.079Z,24.23
2018-02-05T08:50:18.243Z,24.20
2018-02-05T08:52:46.391Z,24.15
2018-02-05T08:55:14.575Z,23.15
2018-02-05T08:57:43.499Z,22.35
2018-02-05T09:00:11.642Z,22.77
2018-02-05T09:02:40.579Z,22.83
2018-02-05T09:05:08.697Z,23.35
2018-02-05T09:07:36.896Z,23.17
2018-02-05T09:10:05.067Z,22.25
2018-02-05T09:12:33.241Z,21.40
2018-02-05T09:15:01.362Z,21.83
2018-02-05T09:17:29.534Z,21.55
2018-02-05T09:19:57.754Z,21.67
2018-02-05T09:22:25.876Z,21.65
2018-02-05T09:24:54.924Z,21.80
2018-02-05T09:27:23.064Z,21.73
2018-02-05T09:29:51.202Z,21.60
2018-02-05T09:32:19.332Z,20.02
2018-02-05T09:34:48.226Z,20.92
2018-02-05T09:37:16.398Z,20.08
2018-02-05T09:39:45.326Z,20.67
2018-02-05T09:42:13.448Z,20.55
2018-02-05T09:44:42.322Z,20.58
2018-02-05T09:47:10.442Z,20.00
2018-02-05T09:49:38.584Z,19.50
2018-02-05T09:52:07.486Z,19.92
2018-02-05T09:54:35.681Z,20.00
2018-02-05T09:57:03.786Z,20.58
2018-02-05T09:59:32.136Z,19.48
2018-02-05T10:02:00.226Z,19.85
2018-02-05T10:04:28.340Z,18.40
2018-02-05T10:06:57.224Z,19.25
2018-02-05T10:09:26.124Z,19.00
2018-02-05T10:11:55.076Z,19.00
2018-02-05T10:14:23.288Z,19.00
2018-02-05T10:16:52.200Z,18.52
2018-02-05T10:19:20.316Z,18.85
2018-02-05T10:21:48.537Z,17.80
2018-02-05T10:24:16.707Z,18.30
2018-02-05T10:26:44.792Z,19.10
2018-02-05T10:29:12.939Z,18.58
2018-02-05T10:31:41.872Z,18.83
2018-02-05T10:34:09.982Z,18.55
2018-02-05T10:36:38.112Z,17.85
2018-02-05T10:39:06.241Z,17.87
2018-02-05T10:41:35.160Z,17.92
2018-02-05T10:44:03.282Z,18.27
2018-02-05T10:46:31.499Z,18.65
2018-02-05T10:48:59.672Z,18.33
2018-02-05T10:51:27.852Z,18.70
2018-02-05T10:53:55.967Z,17.83
2018-02-05T10:56:24.138Z,17.90
2018-02-05T10:58:52.213Z,17.10
2018-02-05T11:01:20.335Z,16.67
2018-02-05T11:03:48.471Z,16.62
2018-02-05T11:06:16.611Z,17.62
2018-02-05T11:08:44.719Z,16.67
2018-02-05T11:11:12.911Z,17.77
2018-02-05T11:13:41.871Z,17.30
2018-02-05T11:16:09.973Z,16.73
2018-02-05T11:18:38.863Z,17.73
2018-02-05T11:21:07.823Z,16.08
2018-02-05T11:23:35.937Z,16.65
2018-02-05T11:26:04.104Z,16.35
2018-02-05T11:28:32.251Z,16.85
2018-02-05T11:31:00.419Z,16.25
2018-02-05T11:33:28.531Z,16.85
2018-02-05T11:35:56.707Z,15.65
2018-02-05T11:38:24.967Z,16.23
2018-02-05T11:40:53.858Z,16.92
2018-02-05T11:43:21.985Z,16.37
2018-02-05T11:45:50.091Z,16.00
2018-02-05T11:48:18.987Z,15.60
2018-02-05T11:50:47.895Z,15.70
2018-02-05T11:53:16.059Z,16.25
2018-02-05T11:55:44.195Z,15.38
2018-02-05T11:58:12.342Z,16.58
2018-02-05T12:00:40.463Z,17.10
2018-02-05T12:03:09.423Z,15.48
2018-02-05T12:05:37.542Z,17.17
2018-02-05T12:08:05.667Z,15.52
2018-02-05T12:10:33.807Z,16.25
2018-02-05T12:13:01.919Z,16.25
2018-02-05T12:15:30.133Z,15.48
2018-02-05T12:17:58.251Z,15.82
2018-02-05T12:20:26.406Z,16.58
2018-02-05T12:22:54.518Z,16.62
2018-02-05T12:25:22.631Z,15.93
2018-02-05T12:27:50.793Z,16.05
2018-02-05T12:30:18.947Z,15.93
2018-02-05T12:32:47.850Z,16.42
2018-02-05T12:35:16.025Z,16.65
2018-02-05T12:37:44.942Z,16.90
2018-02-05T12:40:13.059Z,16.50
2018-02-05T12:42:41.184Z,16.20
2018-02-05T12:45:09.287Z,16.65
2018-02-05T12:47:37.425Z,16.90
2018-02-05T12:50:05.535Z,16.92
2018-02-05T12:52:33.706Z,16.60
2018-02-05T12:55:01.831Z,16.77
2018-02-05T12:57:30.699Z,17.42
2018-02-05T13:00:12.326Z,17.55
2018-02-05T13:02:44.988Z,16.35
2018-02-05T13:05:19.243Z,16.15
2018-02-05T13:07:47.374Z,16.70
2018-02-05T13:10:15.482Z,16.73
2018-02-05T13:12:43.746Z,17.20
2018-02-05T13:15:11.894Z,16.37
2018-02-05T13:17:40.115Z,16.40
2018-02-05T13:20:08.256Z,16.42
2018-02-05T13:22:36.475Z,15.68
2018-02-05T13:25:04.570Z,15.02
2018-02-05T13:27:33.444Z,15.73
2018-02-05T13:30:01.594Z,15.30
2018-02-05T13:32:29.698Z,16.12
2018-02-05T13:34:58.602Z,15.98
2018-02-05T13:37:26.760Z,15.85
2018-02-05T13:39:55.646Z,15.05
2018-02-05T13:42:24.540Z,15.48
2018-02-05T13:44:53.476Z,14.38
2018-02-05T13:47:21.554Z,14.75
2018-02-05T13:49:49.799Z,15.00
2018-02-05T13:52:17.916Z,15.05
2018-02-05T13:54:46.087Z,14.70
2018-02-05T13:57:14.182Z,15.10
2018-02-05T13:59:43.080Z,14.45
2018-02-05T14:02:12.022Z,14.75
2018-02-05T14:04:40.132Z,14.93
2018-02-05T14:07:08.336Z,14.48
2018-02-05T14:09:36.440Z,14.68
2018-02-05T14:12:04.676Z,14.80
2018-02-05T14:14:33.598Z,14.02
2018-02-05T14:17:01.815Z,14.73
2018-02-05T14:19:29.943Z,14.43
2018-02-05T14:21:58.192Z,14.52
2018-02-05T14:24:27.090Z,14.18
2018-02-05T14:26:55.226Z,14.60
2018-02-05T14:29:23.414Z,14.35
2018-02-05T14:31:52.337Z,14.43
2018-02-05T14:34:20.456Z,13.43
2018-02-05T14:36:48.564Z,14.30
2018-02-05T14:39:16.727Z,14.45
2018-02-05T14:41:45.626Z,13.90
2018-02-05T14:44:14.503Z,13.62
2018-02-05T14:46:43.433Z,13.90
2018-02-05T14:49:11.663Z,13.82
2018-02-05T14:51:40.555Z,14.05
2018-02-05T14:54:09.435Z,13.93
2018-02-05T14:56:37.545Z,13.40
2018-02-05T14:59:05.673Z,13.75
2018-02-05T15:01:33.843Z,12.82
2018-02-05T15:04:02.752Z,13.05
2018-02-05T15:06:31.685Z,12.65
2018-02-05T15:08:59.823Z,12.45
2018-02-05T15:11:28.103Z,12.52
2018-02-05T15:13:57.026Z,12.82
2018-02-05T15:16:25.882Z,11.75
2018-02-05T15:18:54.815Z,11.75
2018-02-05T15:21:23.077Z,11.98
2018-02-05T15:23:51.261Z,12.18
2018-02-05T15:26:19.383Z,12.70
2018-02-05T15:28:48.386Z,12.05
2018-02-05T15:31:16.607Z,12.23
2018-02-05T15:33:44.851Z,12.77
2018-02-05T15:36:12.983Z,12.63
2018-02-05T15:38:41.105Z,11.63
2018-02-05T15:41:09.231Z,12.15
2018-02-05T15:43:37.363Z,11.75
2018-02-05T15:46:05.475Z,11.65
2018-02-05T15:48:33.608Z,12.15
2018-02-05T15:51:01.727Z,12.27
2018-02-05T15:53:30.647Z,12.35
2018-02-05T15:55:58.772Z,11.98
2018-02-05T15:58:26.879Z,12.20
2018-02-05T16:00:55.056Z,11.93
2018-02-05T16:03:23.962Z,11.73
2018-02-05T16:05:52.087Z,12.27
2018-02-05T16:08:20.226Z,12.32
2018-02-05T16:10:48.394Z,11.45
2018-02-05T16:13:16.575Z,12.00
2018-02-05T16:15:44.684Z,11.23
2018-02-05T16:18:13.613Z,11.90
2018-02-05T16:20:42.586Z,11.90
2018-02-05T16:23:10.800Z,11.50
2018-02-05T16:25:38.966Z,11.95
2018-02-05T16:28:07.096Z,11.98
2018-02-05T16:30:36.088Z,11.88
2018-02-05T16:33:05.174Z,11.60
2018-02-05T16:35:34.160Z,12.13
2018-02-05T16:38:02.280Z,11.73
2018-02-05T16:40:30.452Z,12.10
2018-02-05T16:42:58.624Z,11.70
2018-02-05T16:45:26.738Z,12.30
2018-02-05T16:47:54.845Z,12.43
2018-02-05T16:50:22.984Z,11.88
2018-02-05T16:52:51.212Z,11.68
2018-02-05T16:55:19.342Z,12.25
2018-02-05T16:57:48.250Z,12.25
2018-02-05T17:00:17.120Z,12.18
2018-02-05T17:02:45.338Z,11.85
2018-02-05T17:05:13.454Z,11.98
2018-02-05T17:07:41.640Z,12.18
2018-02-05T17:10:09.798Z,11.82
2018-02-05T17:12:37.948Z,11.65
2018-02-05T17:15:06.102Z,12.02
2018-02-05T17:17:34.216Z,11.75
2018-02-05T17:20:02.432Z,11.95
2018-02-05T17:22:30.615Z,12.02
2018-02-05T17:24:58.732Z,11.75
2018-02-05T17:27:26.840Z,12.15
2018-02-05T17:29:55.846Z,12.00
2018-02-05T17:32:24.016Z,12.32
2018-02-05T17:34:52.131Z,12.35
2018-02-05T17:37:20.248Z,12.60
2018-02-05T17:39:49.199Z,13.13
2018-02-05T17:42:17.414Z,12.63
2018-02-05T17:44:46.350Z,12.70
2018-02-05T17:47:15.232Z,13.90
2018-02-05T17:49:43.379Z,12.98
2018-02-05T17:52:11.520Z,14.10
2018-02-05T17:54:39.732Z,13.55
2018-02-05T17:57:07.933Z,12.90
2018-02-05T17:59:36.803Z,13.93
2018-02-05T18:02:04.919Z,13.18
2018-02-05T18:04:33.132Z,14.85
2018-02-05T18:07:01.315Z,14.00
2018-02-05T18:09:29.483Z,14.85
2018-02-05T18:11:57.648Z,14.13
2018-02-05T18:14:26.645Z,13.80
2018-02-05T18:16:54.795Z,13.98
2018-02-05T18:19:23.683Z,13.73
2018-02-05T18:21:52.603Z,13.80
2018-02-05T18:24:20.867Z,13.50
2018-02-05T18:26:49.755Z,13.77
2018-02-05T18:29:18.660Z,14.02
2018-02-05T18:31:46.831Z,13.93
2018-02-05T18:34:15.008Z,14.27
2018-02-05T18:36:43.177Z,14.27
2018-02-05T18:39:11.259Z,14.15
2018-02-05T18:41:39.371Z,14.23
2018-02-05T18:44:07.499Z,14.52
2018-02-05T18:46:35.614Z,15.50
2018-02-05T18:49:03.738Z,14.90
2018-02-05T18:51:31.943Z,15.57
2018-02-05T18:54:00.175Z,15.65
2018-02-05T18:56:40.957Z,14.93
2018-02-05T18:59:09.155Z,15.65
2018-02-05T19:01:38.171Z,15.32
2018-02-05T19:04:06.373Z,16.12
2018-02-05T19:06:34.465Z,16.52
2018-02-05T19:09:02.593Z,17.30
2018-02-05T19:11:30.758Z,16.90
2018-02-05T19:13:59.083Z,16.85
2018-02-05T19:16:27.967Z,16.12
2018-02-05T19:18:56.155Z,17.08
2018-02-05T19:21:24.435Z,17.00
2018-02-05T19:23:52.563Z,17.30
2018-02-05T19:26:20.753Z,16.55
2018-02-05T19:28:49.667Z,17.33
2018-02-05T19:31:17.801Z,16.37
2018-02-05T19:33:45.998Z,16.62
2018-02-05T19:36:14.898Z,17.83
2018-02-05T19:38:43.062Z,16.42
2018-02-05T19:41:12.063Z,17.65
2018-02-05T19:43:40.175Z,16.20
2018-02-05T19:46:08.282Z,17.80
2018-02-05T19:48:36.475Z,17.45
2018-02-05T19:51:05.370Z,17.33
2018-02-05T19:53:33.644Z,17.70
2018-02-05T19:56:01.822Z,17.15
2018-02-05T19:58:29.943Z,17.30
2018-02-05T20:00:58.075Z,17.48
2018-02-05T20:03:26.264Z,17.30
2018-02-05T20:05:54.376Z,16.60
2018-02-05T20:08:22.596Z,16.85
2018-02-05T20:10:50.728Z,17.35
2018-02-05T20:13:18.926Z,17.45
2018-02-05T20:15:47.095Z,16.52
2018-02-05T20:18:15.274Z,17.40
2018-02-05T20:20:43.420Z,16.62
2018-02-05T20:23:11.624Z,17.20
2018-02-05T20:25:39.747Z,17.50
2018-02-05T20:28:07.878Z,18.02
2018-02-05T20:30:36.026Z,18.67
2018-02-05T20:33:04.924Z,18.00
2018-02-05T20:35:33.836Z,18.17
2018-02-05T20:38:01.964Z,17.30
2018-02-05T20:40:30.164Z,17.20
2018-02-05T20:42:58.504Z,17.30
2018-02-05T20:45:26.626Z,17.15
2018-02-05T20:47:54.789Z,18.23
2018-02-05T20:50:22.890Z,17.65
2018-02-05T20:52:51.000Z,18.30
2018-02-05T20:55:19.134Z,17.92
2018-02-05T20:57:47.301Z,17.73
2018-02-05T21:00:15.444Z,18.23
2018-02-05T21:02:43.624Z,17.95
2018-02-05T21:05:12.511Z,18.00
2018-02-05T21:07:40.784Z,17.30
2018-02-05T21:10:09.167Z,17.70
2018-02-05T21:12:37.294Z,18.17
2018-02-05T21:15:05.405Z,17.87
2018-02-05T21:17:33.574Z,19.25
2018-02-05T21:20:02.455Z,18.83
2018-02-05T21:22:30.668Z,17.70
2018-02-05T21:24:58.757Z,18.10
2018-02-05T21:27:26.872Z,18.17
2018-02-05T21:29:55.784Z,18.02
2018-02-05T21:32:23.942Z,18.50
2018-02-05T21:34:52.947Z,18.10
2018-02-05T21:37:21.072Z,18.17
2018-02-05T21:39:49.191Z,18.80
2018-02-05T21:42:17.450Z,17.85
2018-02-05T21:44:46.351Z,18.00
2018-02-05T21:47:15.223Z,17.67
2018-02-05T21:49:44.129Z,18.52
2018-02-05T21:52:13.034Z,18.12
2018-02-05T21:54:41.189Z,17.52
2018-02-05T21:57:09.300Z,17.95
2018-02-05T21:59:37.443Z,17.62
2018-02-05T22:02:05.607Z,18.27
2018-02-05T22:04:33.775Z,17.00
2018-02-05T22:07:02.650Z,16.90
2018-02-05T22:09:30.767Z,16.62
2018-02-05T22:11:58.911Z,17.55
2018-02-05T22:14:27.823Z,16.92
2018-02-05T22:16:55.943Z,16.92
2018-02-05T22:19:24.063Z,16.50
2018-02-05T22:21:52.199Z,16.70
2018-02-05T22:24:20.321Z,16.33
2018-02-05T22:26:48.427Z,16.87
2018-02-05T22:29:16.589Z,17.58
2018-02-05T22:31:47.505Z,16.55
2018-02-05T22:34:15.787Z,16.90
2018-02-05T22:36:43.935Z,16.25
2018-02-05T22:39:12.060Z,17.33
2018-02-05T22:41:40.192Z,16.55
2018-02-05T22:44:08.347Z,17.12
2018-02-05T22:46:36.462Z,17.05
2018-02-05T22:49:04.570Z,17.10
2018-02-05T22:51:33.520Z,16.98
2018-02-05T22:54:01.750Z,16.23
2018-02-05T22:56:29.903Z,16.60
2018-02-05T22:58:58.027Z,16.83
2018-02-05T23:01:26.153Z,16.25
2018-02-05T23:03:55.063Z,16.67
2018-02-05T23:06:23.231Z,17.25
2018-02-05T23:08:51.351Z,17.87
2018-02-05T23:11:19.681Z,18.10
2018-02-05T23:13:47.859Z,16.48
2018-02-05T23:16:16.035Z,17.75
2018-02-05T23:18:44.171Z,16.87
2018-02-05T23:21:12.293Z,17.33
2018-02-05T23:23:40.449Z,17.55
2018-02-05T23:26:09.550Z,17.35
2018-02-05T23:28:37.690Z,16.77
2018-02-05T23:31:06.587Z,17.20
2018-02-05T23:33:35.531Z,16.98
2018-02-05T23:36:03.707Z,17.02
2018-02-05T23:38:31.831Z,16.70
2018-02-05T23:41:00.716Z,18.50
2018-02-05T23:43:29.626Z,16.98
2018-02-05T23:45:57.797Z,16.95
2018-02-05T23:48:25.918Z,17.40
2018-02-05T23:50:54.034Z,16.62
2018-02-05T23:53:22.171Z,17.90
2018-02-05T23:55:50.304Z,16.55
2018-02-05T23:58:18.466Z,17.15
